sensor_id;sensor_type;location;lat;lon;timestamp;temperature;humidity
80250;DHT22;69561;37.974;23.708;2023-08-31T00:02:13;28.50;43.60
80250;DHT22;69561;37.974;23.708;2023-08-31T00:04:39;28.50;43.70
80250;DHT22;69561;37.974;23.708;2023-08-31T00:07:05;28.50;43.60
80250;DHT22;69561;37.974;23.708;2023-08-31T00:09:32;28.50;43.30
80250;DHT22;69561;37.974;23.708;2023-08-31T00:11:58;28.40;43.20
80250;DHT22;69561;37.974;23.708;2023-08-31T00:14:27;28.40;43.00
80250;DHT22;69561;37.974;23.708;2023-08-31T00:16:52;28.40;42.80
80250;DHT22;69561;37.974;23.708;2023-08-31T00:19:18;28.40;42.70
80250;DHT22;69561;37.974;23.708;2023-08-31T00:21:44;28.40;42.80
80250;DHT22;69561;37.974;23.708;2023-08-31T00:24:10;28.40;42.70
80250;DHT22;69561;37.974;23.708;2023-08-31T00:26:37;28.40;42.50
80250;DHT22;69561;37.974;23.708;2023-08-31T00:29:06;28.40;42.50
80250;DHT22;69561;37.974;23.708;2023-08-31T00:31:32;28.40;42.80
80250;DHT22;69561;37.974;23.708;2023-08-31T00:33:59;28.40;43.00
80250;DHT22;69561;37.974;23.708;2023-08-31T00:36:33;28.40;43.10
80250;DHT22;69561;37.974;23.708;2023-08-31T00:39:03;28.40;43.10
80250;DHT22;69561;37.974;23.708;2023-08-31T00:41:31;28.40;43.10
80250;DHT22;69561;37.974;23.708;2023-08-31T00:43:57;28.50;43.30
80250;DHT22;69561;37.974;23.708;2023-08-31T00:46:22;28.40;43.40
80250;DHT22;69561;37.974;23.708;2023-08-31T00:48:48;28.40;43.40
80250;DHT22;69561;37.974;23.708;2023-08-31T00:51:14;28.40;43.50
80250;DHT22;69561;37.974;23.708;2023-08-31T00:53:40;28.40;43.60
80250;DHT22;69561;37.974;23.708;2023-08-31T00:56:07;28.40;43.50
80250;DHT22;69561;37.974;23.708;2023-08-31T00:58:33;28.40;43.40
80250;DHT22;69561;37.974;23.708;2023-08-31T01:01:27;28.40;43.20
80250;DHT22;69561;37.974;23.708;2023-08-31T01:09:45;28.40;43.40
80250;DHT22;69561;37.974;23.708;2023-08-31T01:12:25;28.40;43.40
80250;DHT22;69561;37.974;23.708;2023-08-31T01:15:06;28.40;43.40
80250;DHT22;69561;37.974;23.708;2023-08-31T01:17:48;28.40;43.30
80250;DHT22;69561;37.974;23.708;2023-08-31T01:20:34;28.40;43.30
80250;DHT22;69561;37.974;23.708;2023-08-31T01:23:11;28.40;43.30
80250;DHT22;69561;37.974;23.708;2023-08-31T01:25:39;28.40;43.30
80250;DHT22;69561;37.974;23.708;2023-08-31T01:28:09;28.40;43.20
80250;DHT22;69561;37.974;23.708;2023-08-31T01:30:35;28.40;43.10
80250;DHT22;69561;37.974;23.708;2023-08-31T01:33:01;28.30;43.10
80250;DHT22;69561;37.974;23.708;2023-08-31T01:35:32;28.40;43.10
80250;DHT22;69561;37.974;23.708;2023-08-31T01:38:02;28.40;43.10
80250;DHT22;69561;37.974;23.708;2023-08-31T01:40:50;28.40;43.10
80250;DHT22;69561;37.974;23.708;2023-08-31T01:43:18;28.30;43.10
80250;DHT22;69561;37.974;23.708;2023-08-31T01:45:45;28.40;43.10
80250;DHT22;69561;37.974;23.708;2023-08-31T01:48:14;28.30;43.10
80250;DHT22;69561;37.974;23.708;2023-08-31T01:50:40;28.30;43.10
80250;DHT22;69561;37.974;23.708;2023-08-31T01:53:05;28.40;43.10
80250;DHT22;69561;37.974;23.708;2023-08-31T01:55:32;28.40;43.20
80250;DHT22;69561;37.974;23.708;2023-08-31T01:57:58;28.40;43.20
80250;DHT22;69561;37.974;23.708;2023-08-31T02:00:25;28.40;43.30
80250;DHT22;69561;37.974;23.708;2023-08-31T02:02:51;28.40;43.40
80250;DHT22;69561;37.974;23.708;2023-08-31T02:05:17;28.40;43.40
80250;DHT22;69561;37.974;23.708;2023-08-31T02:07:43;28.40;43.50
80250;DHT22;69561;37.974;23.708;2023-08-31T02:10:09;28.40;43.60
80250;DHT22;69561;37.974;23.708;2023-08-31T02:12:35;28.40;43.50
80250;DHT22;69561;37.974;23.708;2023-08-31T02:15:04;28.40;43.50
80250;DHT22;69561;37.974;23.708;2023-08-31T02:17:31;28.40;43.50
80250;DHT22;69561;37.974;23.708;2023-08-31T02:19:57;28.40;43.70
80250;DHT22;69561;37.974;23.708;2023-08-31T02:22:23;28.40;43.80
80250;DHT22;69561;37.974;23.708;2023-08-31T02:24:49;28.40;43.70
80250;DHT22;69561;37.974;23.708;2023-08-31T02:27:14;28.40;43.80
80250;DHT22;69561;37.974;23.708;2023-08-31T02:29:40;28.30;43.50
80250;DHT22;69561;37.974;23.708;2023-08-31T02:32:06;28.40;43.40
80250;DHT22;69561;37.974;23.708;2023-08-31T02:34:32;28.40;43.50
80250;DHT22;69561;37.974;23.708;2023-08-31T02:36:58;28.40;43.50
80250;DHT22;69561;37.974;23.708;2023-08-31T02:39:23;28.30;43.30
80250;DHT22;69561;37.974;23.708;2023-08-31T02:41:49;28.40;43.50
80250;DHT22;69561;37.974;23.708;2023-08-31T02:44:15;28.40;43.50
80250;DHT22;69561;37.974;23.708;2023-08-31T02:46:41;28.40;43.50
80250;DHT22;69561;37.974;23.708;2023-08-31T02:49:06;28.40;43.50
80250;DHT22;69561;37.974;23.708;2023-08-31T02:51:32;28.40;43.50
80250;DHT22;69561;37.974;23.708;2023-08-31T02:53:58;28.40;43.50
80250;DHT22;69561;37.974;23.708;2023-08-31T02:56:23;28.40;43.60
80250;DHT22;69561;37.974;23.708;2023-08-31T02:58:49;28.40;43.60
80250;DHT22;69561;37.974;23.708;2023-08-31T03:01:15;28.40;43.70
80250;DHT22;69561;37.974;23.708;2023-08-31T03:03:42;28.40;43.60
80250;DHT22;69561;37.974;23.708;2023-08-31T03:06:09;28.30;43.60
80250;DHT22;69561;37.974;23.708;2023-08-31T03:08:36;28.40;43.60
80250;DHT22;69561;37.974;23.708;2023-08-31T03:11:03;28.40;43.60
80250;DHT22;69561;37.974;23.708;2023-08-31T03:13:29;28.40;43.60
80250;DHT22;69561;37.974;23.708;2023-08-31T03:15:55;28.40;43.50
80250;DHT22;69561;37.974;23.708;2023-08-31T03:18:22;28.40;43.60
80250;DHT22;69561;37.974;23.708;2023-08-31T03:20:48;28.40;43.60
80250;DHT22;69561;37.974;23.708;2023-08-31T03:23:14;28.40;43.50
80250;DHT22;69561;37.974;23.708;2023-08-31T03:25:39;28.40;43.60
80250;DHT22;69561;37.974;23.708;2023-08-31T03:28:05;28.40;43.60
80250;DHT22;69561;37.974;23.708;2023-08-31T03:30:31;28.40;43.60
80250;DHT22;69561;37.974;23.708;2023-08-31T03:32:57;28.30;43.60
80250;DHT22;69561;37.974;23.708;2023-08-31T03:35:22;28.40;43.80
80250;DHT22;69561;37.974;23.708;2023-08-31T03:37:52;28.40;43.70
80250;DHT22;69561;37.974;23.708;2023-08-31T03:40:18;28.30;43.80
80250;DHT22;69561;37.974;23.708;2023-08-31T03:42:44;28.40;43.80
80250;DHT22;69561;37.974;23.708;2023-08-31T03:45:11;28.40;43.90
80250;DHT22;69561;37.974;23.708;2023-08-31T03:47:37;28.40;43.90
80250;DHT22;69561;37.974;23.708;2023-08-31T03:50:04;28.40;43.90
80250;DHT22;69561;37.974;23.708;2023-08-31T03:52:30;28.30;43.90
80250;DHT22;69561;37.974;23.708;2023-08-31T03:54:55;28.30;43.90
80250;DHT22;69561;37.974;23.708;2023-08-31T03:57:21;28.40;43.90
80250;DHT22;69561;37.974;23.708;2023-08-31T03:59:47;28.40;44.00
80250;DHT22;69561;37.974;23.708;2023-08-31T04:02:13;28.40;43.90
80250;DHT22;69561;37.974;23.708;2023-08-31T04:04:38;28.30;43.80
80250;DHT22;69561;37.974;23.708;2023-08-31T04:07:05;28.40;43.90
80250;DHT22;69561;37.974;23.708;2023-08-31T04:09:32;28.30;43.90
80250;DHT22;69561;37.974;23.708;2023-08-31T04:11:57;28.30;43.90
80250;DHT22;69561;37.974;23.708;2023-08-31T04:14:23;28.40;44.10
80250;DHT22;69561;37.974;23.708;2023-08-31T04:16:49;28.40;44.10
80250;DHT22;69561;37.974;23.708;2023-08-31T04:19:16;28.40;44.20
80250;DHT22;69561;37.974;23.708;2023-08-31T04:21:43;28.40;44.20
80250;DHT22;69561;37.974;23.708;2023-08-31T04:24:09;28.40;44.10
80250;DHT22;69561;37.974;23.708;2023-08-31T04:26:35;28.50;44.00
80250;DHT22;69561;37.974;23.708;2023-08-31T04:29:02;28.70;43.80
80250;DHT22;69561;37.974;23.708;2023-08-31T04:31:28;28.90;43.50
80250;DHT22;69561;37.974;23.708;2023-08-31T04:33:54;29.10;43.30
80250;DHT22;69561;37.974;23.708;2023-08-31T04:36:21;29.20;43.00
80250;DHT22;69561;37.974;23.708;2023-08-31T04:38:48;29.40;42.80
80250;DHT22;69561;37.974;23.708;2023-08-31T04:41:14;29.50;42.60
80250;DHT22;69561;37.974;23.708;2023-08-31T04:43:41;29.50;42.50
80250;DHT22;69561;37.974;23.708;2023-08-31T04:46:06;29.50;42.40
80250;DHT22;69561;37.974;23.708;2023-08-31T04:48:32;29.40;42.40
80250;DHT22;69561;37.974;23.708;2023-08-31T04:50:58;29.30;42.50
80250;DHT22;69561;37.974;23.708;2023-08-31T04:53:24;29.30;42.60
80250;DHT22;69561;37.974;23.708;2023-08-31T04:55:51;29.30;43.00
80250;DHT22;69561;37.974;23.708;2023-08-31T04:58:17;29.20;43.10
80250;DHT22;69561;37.974;23.708;2023-08-31T05:00:42;29.10;44.10
80250;DHT22;69561;37.974;23.708;2023-08-31T05:03:10;29.10;43.30
80250;DHT22;69561;37.974;23.708;2023-08-31T05:05:36;28.90;43.50
80250;DHT22;69561;37.974;23.708;2023-08-31T05:08:02;28.90;43.80
80250;DHT22;69561;37.974;23.708;2023-08-31T05:10:28;28.80;43.90
80250;DHT22;69561;37.974;23.708;2023-08-31T05:12:54;28.80;43.90
80250;DHT22;69561;37.974;23.708;2023-08-31T05:15:20;28.80;43.80
80250;DHT22;69561;37.974;23.708;2023-08-31T05:17:45;28.80;43.90
80250;DHT22;69561;37.974;23.708;2023-08-31T05:20:13;28.80;43.90
80250;DHT22;69561;37.974;23.708;2023-08-31T05:22:38;28.70;43.90
80250;DHT22;69561;37.974;23.708;2023-08-31T05:25:04;28.70;43.90
80250;DHT22;69561;37.974;23.708;2023-08-31T05:27:30;28.70;44.10
80250;DHT22;69561;37.974;23.708;2023-08-31T05:29:56;28.70;44.10
80250;DHT22;69561;37.974;23.708;2023-08-31T05:32:22;28.70;44.20
80250;DHT22;69561;37.974;23.708;2023-08-31T05:34:47;28.70;44.20
80250;DHT22;69561;37.974;23.708;2023-08-31T05:37:13;28.60;44.20
80250;DHT22;69561;37.974;23.708;2023-08-31T05:39:40;28.60;44.20
80250;DHT22;69561;37.974;23.708;2023-08-31T05:42:05;28.60;44.20
80250;DHT22;69561;37.974;23.708;2023-08-31T05:44:31;28.60;44.20
80250;DHT22;69561;37.974;23.708;2023-08-31T05:46:57;28.60;44.20
80250;DHT22;69561;37.974;23.708;2023-08-31T05:49:23;28.60;44.20
80250;DHT22;69561;37.974;23.708;2023-08-31T05:51:49;28.60;44.20
80250;DHT22;69561;37.974;23.708;2023-08-31T05:54:15;28.60;44.10
80250;DHT22;69561;37.974;23.708;2023-08-31T05:56:41;28.70;44.10
80250;DHT22;69561;37.974;23.708;2023-08-31T05:59:07;28.70;44.10
80250;DHT22;69561;37.974;23.708;2023-08-31T06:01:35;28.70;44.10
80250;DHT22;69561;37.974;23.708;2023-08-31T06:04:03;28.60;44.00
80250;DHT22;69561;37.974;23.708;2023-08-31T06:06:30;28.60;44.00
80250;DHT22;69561;37.974;23.708;2023-08-31T06:08:58;28.60;44.10
80250;DHT22;69561;37.974;23.708;2023-08-31T06:11:23;28.60;44.00
80250;DHT22;69561;37.974;23.708;2023-08-31T06:13:49;28.60;45.00
80250;DHT22;69561;37.974;23.708;2023-08-31T06:16:15;28.60;43.90
80250;DHT22;69561;37.974;23.708;2023-08-31T06:18:40;28.60;43.90
80250;DHT22;69561;37.974;23.708;2023-08-31T06:21:06;28.60;43.90
80250;DHT22;69561;37.974;23.708;2023-08-31T06:23:32;28.60;43.80
80250;DHT22;69561;37.974;23.708;2023-08-31T06:25:57;28.60;43.80
80250;DHT22;69561;37.974;23.708;2023-08-31T06:28:23;28.50;43.60
80250;DHT22;69561;37.974;23.708;2023-08-31T06:30:49;28.60;43.60
80250;DHT22;69561;37.974;23.708;2023-08-31T06:33:15;28.60;43.50
80250;DHT22;69561;37.974;23.708;2023-08-31T06:35:41;28.60;43.50
80250;DHT22;69561;37.974;23.708;2023-08-31T06:38:07;28.60;43.60
80250;DHT22;69561;37.974;23.708;2023-08-31T06:40:32;28.50;43.80
80250;DHT22;69561;37.974;23.708;2023-08-31T06:42:58;28.50;43.90
80250;DHT22;69561;37.974;23.708;2023-08-31T06:45:25;28.50;43.90
80250;DHT22;69561;37.974;23.708;2023-08-31T06:47:50;28.50;43.90
80250;DHT22;69561;37.974;23.708;2023-08-31T06:50:16;28.40;43.60
80250;DHT22;69561;37.974;23.708;2023-08-31T06:52:42;28.40;43.50
80250;DHT22;69561;37.974;23.708;2023-08-31T06:55:09;28.40;43.20
80250;DHT22;69561;37.974;23.708;2023-08-31T06:57:36;28.50;43.20
80250;DHT22;69561;37.974;23.708;2023-08-31T07:00:03;28.40;42.70
80250;DHT22;69561;37.974;23.708;2023-08-31T07:02:29;28.50;42.50
80250;DHT22;69561;37.974;23.708;2023-08-31T07:04:55;28.50;42.30
80250;DHT22;69561;37.974;23.708;2023-08-31T07:07:21;28.50;42.10
80250;DHT22;69561;37.974;23.708;2023-08-31T07:09:47;28.50;41.90
80250;DHT22;69561;37.974;23.708;2023-08-31T07:12:16;28.40;41.90
80250;DHT22;69561;37.974;23.708;2023-08-31T07:14:42;28.40;41.90
80250;DHT22;69561;37.974;23.708;2023-08-31T07:17:09;28.40;42.00
80250;DHT22;69561;37.974;23.708;2023-08-31T07:19:38;28.50;42.30
80250;DHT22;69561;37.974;23.708;2023-08-31T07:22:04;28.40;42.20
80250;DHT22;69561;37.974;23.708;2023-08-31T07:24:31;28.50;42.00
80250;DHT22;69561;37.974;23.708;2023-08-31T07:26:57;28.50;42.10
80250;DHT22;69561;37.974;23.708;2023-08-31T07:29:23;28.50;42.20
80250;DHT22;69561;37.974;23.708;2023-08-31T07:31:49;28.50;42.10
80250;DHT22;69561;37.974;23.708;2023-08-31T07:34:14;28.50;42.00
80250;DHT22;69561;37.974;23.708;2023-08-31T07:36:40;28.40;41.90
80250;DHT22;69561;37.974;23.708;2023-08-31T07:39:06;28.40;41.90
80250;DHT22;69561;37.974;23.708;2023-08-31T07:41:32;28.40;42.00
80250;DHT22;69561;37.974;23.708;2023-08-31T07:43:58;28.40;42.10
80250;DHT22;69561;37.974;23.708;2023-08-31T07:46:24;28.40;42.40
80250;DHT22;69561;37.974;23.708;2023-08-31T07:48:49;28.40;42.60
80250;DHT22;69561;37.974;23.708;2023-08-31T07:51:16;28.40;42.70
80250;DHT22;69561;37.974;23.708;2023-08-31T07:53:42;28.40;42.80
80250;DHT22;69561;37.974;23.708;2023-08-31T07:56:07;28.40;43.30
80250;DHT22;69561;37.974;23.708;2023-08-31T07:58:33;28.40;43.00
80250;DHT22;69561;37.974;23.708;2023-08-31T08:00:59;28.40;43.10
80250;DHT22;69561;37.974;23.708;2023-08-31T08:03:25;28.40;43.10
80250;DHT22;69561;37.974;23.708;2023-08-31T08:05:51;28.40;43.20
80250;DHT22;69561;37.974;23.708;2023-08-31T08:08:17;28.40;43.10
80250;DHT22;69561;37.974;23.708;2023-08-31T08:10:43;28.40;43.20
80250;DHT22;69561;37.974;23.708;2023-08-31T08:13:09;28.30;43.20
80250;DHT22;69561;37.974;23.708;2023-08-31T08:15:35;28.30;43.30
80250;DHT22;69561;37.974;23.708;2023-08-31T08:18:01;28.40;43.50
80250;DHT22;69561;37.974;23.708;2023-08-31T08:20:30;28.30;43.50
80250;DHT22;69561;37.974;23.708;2023-08-31T08:22:56;28.30;43.50
80250;DHT22;69561;37.974;23.708;2023-08-31T08:25:23;28.30;43.50
80250;DHT22;69561;37.974;23.708;2023-08-31T08:27:50;28.30;43.50
80250;DHT22;69561;37.974;23.708;2023-08-31T08:30:16;28.30;43.40
80250;DHT22;69561;37.974;23.708;2023-08-31T08:32:42;28.30;43.50
80250;DHT22;69561;37.974;23.708;2023-08-31T08:35:08;28.30;43.50
80250;DHT22;69561;37.974;23.708;2023-08-31T08:37:34;28.30;43.60
80250;DHT22;69561;37.974;23.708;2023-08-31T08:40:00;28.30;43.60
80250;DHT22;69561;37.974;23.708;2023-08-31T08:42:29;28.30;43.70
80250;DHT22;69561;37.974;23.708;2023-08-31T08:44:57;28.20;43.60
80250;DHT22;69561;37.974;23.708;2023-08-31T08:47:23;28.20;43.60
80250;DHT22;69561;37.974;23.708;2023-08-31T08:49:50;28.20;43.60
80250;DHT22;69561;37.974;23.708;2023-08-31T08:52:16;28.30;43.80
80250;DHT22;69561;37.974;23.708;2023-08-31T08:54:42;28.20;43.70
80250;DHT22;69561;37.974;23.708;2023-08-31T08:57:07;28.30;43.70
80250;DHT22;69561;37.974;23.708;2023-08-31T08:59:33;28.30;43.60
80250;DHT22;69561;37.974;23.708;2023-08-31T09:01:59;28.20;43.50
80250;DHT22;69561;37.974;23.708;2023-08-31T09:04:25;28.20;43.50
80250;DHT22;69561;37.974;23.708;2023-08-31T09:06:51;28.20;44.40
80250;DHT22;69561;37.974;23.708;2023-08-31T09:09:17;28.20;43.40
80250;DHT22;69561;37.974;23.708;2023-08-31T09:11:44;28.20;43.40
80250;DHT22;69561;37.974;23.708;2023-08-31T09:14:18;28.20;43.40
80250;DHT22;69561;37.974;23.708;2023-08-31T09:16:49;28.20;43.40
80250;DHT22;69561;37.974;23.708;2023-08-31T09:19:18;28.20;43.40
80250;DHT22;69561;37.974;23.708;2023-08-31T09:21:44;28.20;43.40
80250;DHT22;69561;37.974;23.708;2023-08-31T09:24:11;28.20;43.30
80250;DHT22;69561;37.974;23.708;2023-08-31T09:26:39;28.20;43.30
80250;DHT22;69561;37.974;23.708;2023-08-31T09:29:10;28.20;43.40
80250;DHT22;69561;37.974;23.708;2023-08-31T09:31:36;28.20;43.40
80250;DHT22;69561;37.974;23.708;2023-08-31T09:34:02;28.20;43.30
80250;DHT22;69561;37.974;23.708;2023-08-31T09:36:28;28.20;43.30
80250;DHT22;69561;37.974;23.708;2023-08-31T09:38:58;28.10;43.20
80250;DHT22;69561;37.974;23.708;2023-08-31T09:41:24;28.10;43.20
80250;DHT22;69561;37.974;23.708;2023-08-31T09:43:50;28.10;43.20
80250;DHT22;69561;37.974;23.708;2023-08-31T09:46:16;28.10;43.20
80250;DHT22;69561;37.974;23.708;2023-08-31T09:48:42;28.10;43.20
80250;DHT22;69561;37.974;23.708;2023-08-31T09:51:10;28.10;43.20
80250;DHT22;69561;37.974;23.708;2023-08-31T09:53:37;28.20;43.30
80250;DHT22;69561;37.974;23.708;2023-08-31T09:56:05;28.10;43.10
80250;DHT22;69561;37.974;23.708;2023-08-31T09:58:32;28.10;43.00
80250;DHT22;69561;37.974;23.708;2023-08-31T10:00:59;28.10;43.00
80250;DHT22;69561;37.974;23.708;2023-08-31T10:03:26;28.10;43.00
80250;DHT22;69561;37.974;23.708;2023-08-31T10:05:54;28.00;42.90
80250;DHT22;69561;37.974;23.708;2023-08-31T10:08:22;28.10;42.90
80250;DHT22;69561;37.974;23.708;2023-08-31T10:10:49;28.00;42.80
80250;DHT22;69561;37.974;23.708;2023-08-31T10:13:16;28.10;42.90
80250;DHT22;69561;37.974;23.708;2023-08-31T10:15:44;28.10;42.80
80250;DHT22;69561;37.974;23.708;2023-08-31T10:18:10;28.00;42.60
80250;DHT22;69561;37.974;23.708;2023-08-31T10:20:35;28.00;42.40
80250;DHT22;69561;37.974;23.708;2023-08-31T10:23:05;28.10;42.40
80250;DHT22;69561;37.974;23.708;2023-08-31T10:28:23;28.00;41.80
80250;DHT22;69561;37.974;23.708;2023-08-31T10:31:15;28.00;41.50
80250;DHT22;69561;37.974;23.708;2023-08-31T10:33:43;28.10;41.20
80250;DHT22;69561;37.974;23.708;2023-08-31T10:36:12;28.00;41.30
80250;DHT22;69561;37.974;23.708;2023-08-31T10:38:38;28.00;41.40
80250;DHT22;69561;37.974;23.708;2023-08-31T10:46:36;27.90;41.20
80250;DHT22;69561;37.974;23.708;2023-08-31T10:54:13;28.00;41.00
80250;DHT22;69561;37.974;23.708;2023-08-31T10:59:26;27.90;41.00
80250;DHT22;69561;37.974;23.708;2023-08-31T11:01:58;27.90;42.10
80250;DHT22;69561;37.974;23.708;2023-08-31T11:04:27;27.90;41.00
80250;DHT22;69561;37.974;23.708;2023-08-31T11:07:16;27.90;41.10
80250;DHT22;69561;37.974;23.708;2023-08-31T11:09:43;27.90;41.00
80250;DHT22;69561;37.974;23.708;2023-08-31T11:12:09;27.90;40.90
80250;DHT22;69561;37.974;23.708;2023-08-31T11:14:35;27.90;40.90
80250;DHT22;69561;37.974;23.708;2023-08-31T11:17:01;27.90;40.80
80250;DHT22;69561;37.974;23.708;2023-08-31T11:19:29;27.90;40.70
80250;DHT22;69561;37.974;23.708;2023-08-31T11:21:55;27.90;40.50
80250;DHT22;69561;37.974;23.708;2023-08-31T11:24:21;27.90;40.40
80250;DHT22;69561;37.974;23.708;2023-08-31T11:26:50;27.90;40.30
80250;DHT22;69561;37.974;23.708;2023-08-31T11:29:16;27.80;40.20
80250;DHT22;69561;37.974;23.708;2023-08-31T11:31:42;27.90;40.20
80250;DHT22;69561;37.974;23.708;2023-08-31T11:34:15;27.90;40.10
80250;DHT22;69561;37.974;23.708;2023-08-31T11:36:42;27.90;40.00
80250;DHT22;69561;37.974;23.708;2023-08-31T11:39:12;27.90;39.90
80250;DHT22;69561;37.974;23.708;2023-08-31T11:41:39;27.90;39.70
80250;DHT22;69561;37.974;23.708;2023-08-31T11:44:09;27.90;39.60
80250;DHT22;69561;37.974;23.708;2023-08-31T11:46:39;27.90;39.50
80250;DHT22;69561;37.974;23.708;2023-08-31T11:49:07;27.90;39.40
80250;DHT22;69561;37.974;23.708;2023-08-31T11:51:34;27.90;39.40
80250;DHT22;69561;37.974;23.708;2023-08-31T11:54:03;27.90;39.10
80250;DHT22;69561;37.974;23.708;2023-08-31T11:56:46;27.80;38.80
80250;DHT22;69561;37.974;23.708;2023-08-31T11:59:15;27.90;38.70
80250;DHT22;69561;37.974;23.708;2023-08-31T12:01:49;27.90;38.70
80250;DHT22;69561;37.974;23.708;2023-08-31T12:04:19;27.90;38.30
80250;DHT22;69561;37.974;23.708;2023-08-31T12:06:50;27.90;38.20
80250;DHT22;69561;37.974;23.708;2023-08-31T12:09:16;27.90;37.90
80250;DHT22;69561;37.974;23.708;2023-08-31T12:11:42;27.80;37.50
80250;DHT22;69561;37.974;23.708;2023-08-31T12:14:28;27.90;37.30
80250;DHT22;69561;37.974;23.708;2023-08-31T12:17:01;27.90;37.00
80250;DHT22;69561;37.974;23.708;2023-08-31T12:19:28;27.90;36.90
80250;DHT22;69561;37.974;23.708;2023-08-31T12:21:55;27.80;36.60
80250;DHT22;69561;37.974;23.708;2023-08-31T12:24:21;27.90;36.50
80250;DHT22;69561;37.974;23.708;2023-08-31T12:26:49;27.80;36.20
80250;DHT22;69561;37.974;23.708;2023-08-31T12:29:14;27.80;36.00
80250;DHT22;69561;37.974;23.708;2023-08-31T12:31:40;27.80;35.80
80250;DHT22;69561;37.974;23.708;2023-08-31T12:34:06;27.80;36.70
80250;DHT22;69561;37.974;23.708;2023-08-31T12:36:36;27.80;35.80
80250;DHT22;69561;37.974;23.708;2023-08-31T12:39:07;27.80;35.80
80250;DHT22;69561;37.974;23.708;2023-08-31T12:41:36;27.80;35.80
80250;DHT22;69561;37.974;23.708;2023-08-31T12:44:03;27.70;35.80
80250;DHT22;69561;37.974;23.708;2023-08-31T12:46:29;27.70;35.70
80250;DHT22;69561;37.974;23.708;2023-08-31T12:48:55;27.70;35.80
80250;DHT22;69561;37.974;23.708;2023-08-31T12:51:21;27.70;35.70
80250;DHT22;69561;37.974;23.708;2023-08-31T12:53:47;27.60;35.70
80250;DHT22;69561;37.974;23.708;2023-08-31T12:56:13;27.70;35.70
80250;DHT22;69561;37.974;23.708;2023-08-31T12:58:39;27.70;35.70
80250;DHT22;69561;37.974;23.708;2023-08-31T13:01:05;27.50;35.60
80250;DHT22;69561;37.974;23.708;2023-08-31T13:03:31;27.60;35.70
80250;DHT22;69561;37.974;23.708;2023-08-31T13:05:56;27.60;35.70
80250;DHT22;69561;37.974;23.708;2023-08-31T13:08:23;27.60;35.60
80250;DHT22;69561;37.974;23.708;2023-08-31T13:10:53;27.60;35.60
80250;DHT22;69561;37.974;23.708;2023-08-31T13:13:19;27.60;35.50
80250;DHT22;69561;37.974;23.708;2023-08-31T13:15:48;27.60;35.40
80250;DHT22;69561;37.974;23.708;2023-08-31T13:18:15;27.60;35.30
80250;DHT22;69561;37.974;23.708;2023-08-31T13:20:41;27.60;35.40
80250;DHT22;69561;37.974;23.708;2023-08-31T13:23:07;27.60;35.30
80250;DHT22;69561;37.974;23.708;2023-08-31T13:25:33;27.60;35.30
80250;DHT22;69561;37.974;23.708;2023-08-31T13:28:00;27.60;35.30
80250;DHT22;69561;37.974;23.708;2023-08-31T13:30:25;27.60;35.30
80250;DHT22;69561;37.974;23.708;2023-08-31T13:32:51;27.60;35.30
80250;DHT22;69561;37.974;23.708;2023-08-31T13:35:17;27.60;35.20
80250;DHT22;69561;37.974;23.708;2023-08-31T13:37:42;27.60;35.20
80250;DHT22;69561;37.974;23.708;2023-08-31T13:40:08;27.60;35.60
80250;DHT22;69561;37.974;23.708;2023-08-31T13:42:35;27.60;35.60
80250;DHT22;69561;37.974;23.708;2023-08-31T13:45:06;27.50;35.60
80250;DHT22;69561;37.974;23.708;2023-08-31T13:47:33;27.60;35.70
80250;DHT22;69561;37.974;23.708;2023-08-31T13:49:59;27.50;35.60
80250;DHT22;69561;37.974;23.708;2023-08-31T13:52:24;27.50;35.60
80250;DHT22;69561;37.974;23.708;2023-08-31T13:54:50;27.60;35.70
80250;DHT22;69561;37.974;23.708;2023-08-31T13:57:16;27.50;35.60
80250;DHT22;69561;37.974;23.708;2023-08-31T13:59:43;27.50;35.60
80250;DHT22;69561;37.974;23.708;2023-08-31T14:02:09;27.50;35.60
80250;DHT22;69561;37.974;23.708;2023-08-31T14:04:35;27.50;35.60
80250;DHT22;69561;37.974;23.708;2023-08-31T14:07:01;27.50;35.60
80250;DHT22;69561;37.974;23.708;2023-08-31T14:09:28;27.50;35.60
80250;DHT22;69561;37.974;23.708;2023-08-31T14:11:54;27.50;35.60
80250;DHT22;69561;37.974;23.708;2023-08-31T14:14:21;27.60;35.60
80250;DHT22;69561;37.974;23.708;2023-08-31T14:16:47;27.50;35.60
80250;DHT22;69561;37.974;23.708;2023-08-31T14:19:13;27.50;35.60
80250;DHT22;69561;37.974;23.708;2023-08-31T14:21:39;27.60;35.70
80250;DHT22;69561;37.974;23.708;2023-08-31T14:24:06;27.50;35.60
80250;DHT22;69561;37.974;23.708;2023-08-31T14:26:32;27.50;35.80
80250;DHT22;69561;37.974;23.708;2023-08-31T14:28:58;27.50;36.00
80250;DHT22;69561;37.974;23.708;2023-08-31T14:31:24;27.50;36.00
80250;DHT22;69561;37.974;23.708;2023-08-31T14:33:49;27.50;36.20
80250;DHT22;69561;37.974;23.708;2023-08-31T14:36:17;27.50;36.30
80250;DHT22;69561;37.974;23.708;2023-08-31T14:38:43;27.50;36.40
80250;DHT22;69561;37.974;23.708;2023-08-31T14:41:11;27.50;37.20
80250;DHT22;69561;37.974;23.708;2023-08-31T14:43:36;27.50;38.30
80250;DHT22;69561;37.974;23.708;2023-08-31T14:46:02;27.50;39.20
80250;DHT22;69561;37.974;23.708;2023-08-31T14:48:29;27.50;40.10
80250;DHT22;69561;37.974;23.708;2023-08-31T14:50:55;27.50;40.70
80250;DHT22;69561;37.974;23.708;2023-08-31T14:53:24;27.50;41.20
80250;DHT22;69561;37.974;23.708;2023-08-31T14:55:50;27.50;42.10
80250;DHT22;69561;37.974;23.708;2023-08-31T14:58:16;27.50;42.40
80250;DHT22;69561;37.974;23.708;2023-08-31T15:00:42;27.50;42.80
80250;DHT22;69561;37.974;23.708;2023-08-31T15:03:08;27.50;43.10
80250;DHT22;69561;37.974;23.708;2023-08-31T15:05:35;27.50;43.50
80250;DHT22;69561;37.974;23.708;2023-08-31T15:08:04;27.50;43.80
80250;DHT22;69561;37.974;23.708;2023-08-31T15:10:30;27.50;44.10
80250;DHT22;69561;37.974;23.708;2023-08-31T15:12:56;27.50;44.20
80250;DHT22;69561;37.974;23.708;2023-08-31T15:15:27;27.50;44.30
80250;DHT22;69561;37.974;23.708;2023-08-31T15:17:54;27.50;44.50
80250;DHT22;69561;37.974;23.708;2023-08-31T15:20:20;27.50;44.60
80250;DHT22;69561;37.974;23.708;2023-08-31T15:22:46;27.50;44.60
80250;DHT22;69561;37.974;23.708;2023-08-31T15:25:12;27.50;44.40
80250;DHT22;69561;37.974;23.708;2023-08-31T15:27:38;27.50;44.30
80250;DHT22;69561;37.974;23.708;2023-08-31T15:30:04;27.50;44.20
80250;DHT22;69561;37.974;23.708;2023-08-31T15:32:33;27.60;44.10
80250;DHT22;69561;37.974;23.708;2023-08-31T15:34:58;27.60;44.10
80250;DHT22;69561;37.974;23.708;2023-08-31T15:37:24;27.60;44.00